EGPM/SCS METAR and TAF weather

Enter ICAO airport designator
Station Type Date Time Source
EGPM METAR 2018/07/16 23:50 UTC NOAA

EGPM 162350Z AUTO 09004KT 060V120 9999 OVC036/// 13/10 Q1012


Station Type Date Time Source
EGPM Decoded METAR 2018/07/16 23:50 UTC NOAA

Scatsa / Shetland Island, United Kingdom (EGPM) 60-26N 001-18W
Jul 16, 2018 - 07:50 PM EDT / 2018.07.16 2350 UTC
Wind: from the E (090 degrees) at 5 MPH (4 KT) (direction variable):0
Visibility: greater than 7 mile(s):0
Sky conditions: overcast
Temperature: 55 F (13 C)
Dew Point: 50 F (10 C)
Relative Humidity: 81%
Pressure (altimeter): 29.88 in. Hg (1012 hPa)
ob: EGPM 162350Z AUTO 09004KT 060V120 9999 OVC036/// 13/10 Q1012
cycle: 0

Station Type Date Time Source
EGPM TAF 2013/04/29 03:39 UTC NOAA

TAF TAF EGPM 290337Z 2903/2915 22005KT 9999 SCT030 PROB30
TEMPO 2903/2906 7000 SHRAGS
BECMG 2906/2909 32015KT PROB40
TEMPO 2906/2915 6000 SHRA SHGS BKN012CB


Example: see airport list